sensor_id;sensor_type;location;lat;lon;timestamp;pressure;altitude;pressure_sealevel;temperature;humidity
62124;BME280;48110;47.532;19.078;2023-12-20T00:02:23;100570.75;;;-2.28;100.00
62124;BME280;48110;47.532;19.078;2023-12-20T00:05:26;100572.59;;;-2.14;100.00
62124;BME280;48110;47.532;19.078;2023-12-20T00:08:29;100571.16;;;-2.20;100.00
62124;BME280;48110;47.532;19.078;2023-12-20T00:11:32;100563.94;;;-2.31;100.00
62124;BME280;48110;47.532;19.078;2023-12-20T00:14:34;100556.56;;;-2.38;100.00
62124;BME280;48110;47.532;19.078;2023-12-20T00:17:38;100555.31;;;-2.31;100.00
62124;BME280;48110;47.532;19.078;2023-12-20T00:20:43;100546.66;;;-2.32;100.00
62124;BME280;48110;47.532;19.078;2023-12-20T00:23:46;100541.22;;;-2.27;100.00
62124;BME280;48110;47.532;19.078;2023-12-20T00:26:48;100536.97;;;-2.28;100.00
62124;BME280;48110;47.532;19.078;2023-12-20T00:29:52;100538.87;;;-2.32;100.00
62124;BME280;48110;47.532;19.078;2023-12-20T00:32:56;100533.06;;;-2.37;100.00
62124;BME280;48110;47.532;19.078;2023-12-20T00:36:00;100528.66;;;-2.35;100.00
62124;BME280;48110;47.532;19.078;2023-12-20T00:39:02;100521.94;;;-2.39;100.00
62124;BME280;48110;47.532;19.078;2023-12-20T00:42:06;100522.44;;;-2.48;100.00
62124;BME280;48110;47.532;19.078;2023-12-20T00:45:09;100513.31;;;-2.39;100.00
62124;BME280;48110;47.532;19.078;2023-12-20T00:48:12;100503.09;;;-2.27;100.00
62124;BME280;48110;47.532;19.078;2023-12-20T00:51:15;100499.81;;;-2.30;100.00
62124;BME280;48110;47.532;19.078;2023-12-20T00:54:18;100491.13;;;-2.29;100.00
62124;BME280;48110;47.532;19.078;2023-12-20T00:57:21;100483.31;;;-2.13;100.00
62124;BME280;48110;47.532;19.078;2023-12-20T01:00:24;100489.19;;;-2.10;100.00
62124;BME280;48110;47.532;19.078;2023-12-20T01:03:27;100488.25;;;-2.09;100.00
62124;BME280;48110;47.532;19.078;2023-12-20T01:06:30;100492.69;;;-2.27;100.00
62124;BME280;48110;47.532;19.078;2023-12-20T01:09:32;100481.78;;;-2.17;100.00
62124;BME280;48110;47.532;19.078;2023-12-20T01:12:36;100476.00;;;-2.23;100.00
62124;BME280;48110;47.532;19.078;2023-12-20T01:15:39;100476.09;;;-2.24;100.00
62124;BME280;48110;47.532;19.078;2023-12-20T01:18:42;100471.91;;;-2.27;100.00
62124;BME280;48110;47.532;19.078;2023-12-20T01:21:45;100469.41;;;-2.28;100.00
62124;BME280;48110;47.532;19.078;2023-12-20T01:24:49;100463.63;;;-2.33;100.00
62124;BME280;48110;47.532;19.078;2023-12-20T01:27:51;100459.34;;;-2.34;100.00
62124;BME280;48110;47.532;19.078;2023-12-20T01:30:54;100457.25;;;-2.28;100.00
62124;BME280;48110;47.532;19.078;2023-12-20T01:33:57;100445.84;;;-2.09;100.00
62124;BME280;48110;47.532;19.078;2023-12-20T01:37:01;100448.44;;;-2.09;100.00
62124;BME280;48110;47.532;19.078;2023-12-20T01:40:04;100443.44;;;-2.28;100.00
62124;BME280;48110;47.532;19.078;2023-12-20T01:43:09;100441.50;;;-2.40;100.00
62124;BME280;48110;47.532;19.078;2023-12-20T01:46:12;100429.41;;;-2.41;100.00
62124;BME280;48110;47.532;19.078;2023-12-20T01:49:16;100420.31;;;-2.33;100.00
62124;BME280;48110;47.532;19.078;2023-12-20T01:52:19;100412.19;;;-2.42;100.00
62124;BME280;48110;47.532;19.078;2023-12-20T01:55:24;100413.84;;;-2.41;100.00
62124;BME280;48110;47.532;19.078;2023-12-20T01:58:27;100404.72;;;-2.33;100.00
62124;BME280;48110;47.532;19.078;2023-12-20T02:01:31;100401.09;;;-2.30;100.00
62124;BME280;48110;47.532;19.078;2023-12-20T02:04:35;100392.47;;;-2.31;100.00
62124;BME280;48110;47.532;19.078;2023-12-20T02:07:38;100383.78;;;-2.15;100.00
62124;BME280;48110;47.532;19.078;2023-12-20T02:10:41;100380.13;;;-1.97;100.00
62124;BME280;48110;47.532;19.078;2023-12-20T02:13:45;100369.53;;;-2.08;100.00
62124;BME280;48110;47.532;19.078;2023-12-20T02:16:48;100367.44;;;-2.17;100.00
62124;BME280;48110;47.532;19.078;2023-12-20T02:19:51;100358.06;;;-2.20;100.00
62124;BME280;48110;47.532;19.078;2023-12-20T02:22:54;100353.22;;;-2.26;100.00
62124;BME280;48110;47.532;19.078;2023-12-20T02:25:57;100347.03;;;-2.24;100.00
62124;BME280;48110;47.532;19.078;2023-12-20T02:29:00;100348.59;;;-2.21;100.00
62124;BME280;48110;47.532;19.078;2023-12-20T02:32:04;100341.06;;;-2.26;100.00
62124;BME280;48110;47.532;19.078;2023-12-20T02:35:07;100334.31;;;-2.28;100.00
62124;BME280;48110;47.532;19.078;2023-12-20T02:38:10;100335.22;;;-2.29;100.00
62124;BME280;48110;47.532;19.078;2023-12-20T02:41:14;100335.13;;;-2.28;100.00
62124;BME280;48110;47.532;19.078;2023-12-20T02:44:19;100328.84;;;-2.24;100.00
62124;BME280;48110;47.532;19.078;2023-12-20T02:47:22;100331.56;;;-2.11;100.00
62124;BME280;48110;47.532;19.078;2023-12-20T02:50:25;100318.13;;;-2.03;100.00
62124;BME280;48110;47.532;19.078;2023-12-20T02:53:28;100314.31;;;-1.98;100.00
62124;BME280;48110;47.532;19.078;2023-12-20T02:56:32;100315.84;;;-1.94;100.00
62124;BME280;48110;47.532;19.078;2023-12-20T02:59:35;100306.16;;;-1.92;100.00
62124;BME280;48110;47.532;19.078;2023-12-20T03:02:38;100311.09;;;-1.87;100.00
62124;BME280;48110;47.532;19.078;2023-12-20T03:05:42;100304.47;;;-2.07;100.00
62124;BME280;48110;47.532;19.078;2023-12-20T03:08:45;100305.94;;;-2.03;100.00
62124;BME280;48110;47.532;19.078;2023-12-20T03:11:48;100300.47;;;-1.98;100.00
62124;BME280;48110;47.532;19.078;2023-12-20T03:14:51;100299.19;;;-1.91;100.00
62124;BME280;48110;47.532;19.078;2023-12-20T03:17:54;100302.72;;;-1.92;100.00
62124;BME280;48110;47.532;19.078;2023-12-20T03:20:57;100305.59;;;-1.83;100.00
62124;BME280;48110;47.532;19.078;2023-12-20T03:24:00;100306.78;;;-2.02;100.00
62124;BME280;48110;47.532;19.078;2023-12-20T03:27:04;100312.66;;;-1.99;100.00
62124;BME280;48110;47.532;19.078;2023-12-20T03:30:07;100297.87;;;-1.98;100.00
62124;BME280;48110;47.532;19.078;2023-12-20T03:33:10;100307.63;;;-2.02;100.00
62124;BME280;48110;47.532;19.078;2023-12-20T03:36:13;100311.91;;;-2.01;100.00
62124;BME280;48110;47.532;19.078;2023-12-20T03:39:16;100308.37;;;-2.00;100.00
62124;BME280;48110;47.532;19.078;2023-12-20T03:42:19;100307.72;;;-2.03;100.00
62124;BME280;48110;47.532;19.078;2023-12-20T03:45:22;100304.47;;;-2.07;100.00
62124;BME280;48110;47.532;19.078;2023-12-20T03:48:25;100313.00;;;-2.05;100.00
62124;BME280;48110;47.532;19.078;2023-12-20T03:51:28;100302.84;;;-1.94;100.00
62124;BME280;48110;47.532;19.078;2023-12-20T03:54:31;100306.06;;;-2.04;100.00
62124;BME280;48110;47.532;19.078;2023-12-20T03:57:34;100302.53;;;-2.03;100.00
62124;BME280;48110;47.532;19.078;2023-12-20T04:00:36;100291.31;;;-2.04;100.00
62124;BME280;48110;47.532;19.078;2023-12-20T04:03:41;100287.38;;;-2.11;100.00
62124;BME280;48110;47.532;19.078;2023-12-20T04:06:44;100294.34;;;-2.11;100.00
62124;BME280;48110;47.532;19.078;2023-12-20T04:09:50;100294.97;;;-2.08;100.00
62124;BME280;48110;47.532;19.078;2023-12-20T04:12:53;100282.19;;;-1.97;100.00
62124;BME280;48110;47.532;19.078;2023-12-20T04:15:58;100286.84;;;-1.88;100.00
62124;BME280;48110;47.532;19.078;2023-12-20T04:19:01;100287.41;;;-1.83;100.00
62124;BME280;48110;47.532;19.078;2023-12-20T04:22:05;100287.41;;;-1.83;100.00
62124;BME280;48110;47.532;19.078;2023-12-20T04:25:08;100277.47;;;-1.90;100.00
62124;BME280;48110;47.532;19.078;2023-12-20T04:28:12;100274.59;;;-2.00;100.00
62124;BME280;48110;47.532;19.078;2023-12-20T04:31:15;100271.53;;;-1.92;100.00
62124;BME280;48110;47.532;19.078;2023-12-20T04:34:18;100249.44;;;-1.99;100.00
62124;BME280;48110;47.532;19.078;2023-12-20T04:37:21;100250.91;;;-2.09;100.00
62124;BME280;48110;47.532;19.078;2023-12-20T04:40:24;100254.34;;;-1.95;100.00
62124;BME280;48110;47.532;19.078;2023-12-20T04:43:27;100245.25;;;-2.02;100.00
62124;BME280;48110;47.532;19.078;2023-12-20T04:46:31;100243.81;;;-2.22;100.00
62124;BME280;48110;47.532;19.078;2023-12-20T04:49:35;100234.53;;;-2.26;100.00
62124;BME280;48110;47.532;19.078;2023-12-20T04:52:38;100217.47;;;-2.30;100.00
62124;BME280;48110;47.532;19.078;2023-12-20T04:55:41;100207.44;;;-2.22;100.00
62124;BME280;48110;47.532;19.078;2023-12-20T04:58:43;100210.25;;;-1.96;100.00
62124;BME280;48110;47.532;19.078;2023-12-20T05:01:46;100208.75;;;-2.14;100.00
62124;BME280;48110;47.532;19.078;2023-12-20T05:04:49;100203.22;;;-2.08;100.00
62124;BME280;48110;47.532;19.078;2023-12-20T05:07:55;100199.28;;;-2.01;100.00
62124;BME280;48110;47.532;19.078;2023-12-20T05:10:59;100205.88;;;-2.10;100.00
62124;BME280;48110;47.532;19.078;2023-12-20T05:14:02;100187.62;;;-2.08;100.00
62124;BME280;48110;47.532;19.078;2023-12-20T05:17:05;100187.41;;;-2.05;100.00
62124;BME280;48110;47.532;19.078;2023-12-20T05:20:08;100181.56;;;-2.09;100.00
62124;BME280;48110;47.532;19.078;2023-12-20T05:23:12;100173.50;;;-2.04;100.00
62124;BME280;48110;47.532;19.078;2023-12-20T05:26:16;100169.50;;;-2.10;100.00
62124;BME280;48110;47.532;19.078;2023-12-20T05:29:19;100182.69;;;-1.99;100.00
62124;BME280;48110;47.532;19.078;2023-12-20T05:32:22;100188.53;;;-2.09;100.00
62124;BME280;48110;47.532;19.078;2023-12-20T05:35:24;100193.72;;;-2.09;100.00
62124;BME280;48110;47.532;19.078;2023-12-20T05:38:27;100199.50;;;-2.04;100.00
62124;BME280;48110;47.532;19.078;2023-12-20T05:41:33;100195.97;;;-2.03;100.00
62124;BME280;48110;47.532;19.078;2023-12-20T05:44:36;100188.53;;;-1.95;100.00
62124;BME280;48110;47.532;19.078;2023-12-20T05:47:40;100182.50;;;-1.96;100.00
62124;BME280;48110;47.532;19.078;2023-12-20T05:50:43;100166.91;;;-1.96;100.00
62124;BME280;48110;47.532;19.078;2023-12-20T05:53:46;100162.97;;;-1.89;100.00
62124;BME280;48110;47.532;19.078;2023-12-20T05:56:49;100155.28;;;-1.90;100.00
62124;BME280;48110;47.532;19.078;2023-12-20T05:59:53;100164.94;;;-1.92;100.00
62124;BME280;48110;47.532;19.078;2023-12-20T06:02:58;100151.00;;;-1.77;100.00
62124;BME280;48110;47.532;19.078;2023-12-20T06:06:08;100136.22;;;-1.77;100.00
62124;BME280;48110;47.532;19.078;2023-12-20T06:09:18;100141.59;;;-1.65;100.00
62124;BME280;48110;47.532;19.078;2023-12-20T06:12:22;100151.84;;;-1.77;100.00
62124;BME280;48110;47.532;19.078;2023-12-20T06:15:25;100148.09;;;-1.72;100.00
62124;BME280;48110;47.532;19.078;2023-12-20T06:18:28;100145.34;;;-1.69;100.00
62124;BME280;48110;47.532;19.078;2023-12-20T06:21:31;100134.12;;;-1.84;100.00
62124;BME280;48110;47.532;19.078;2023-12-20T06:24:34;100159.34;;;-1.72;100.00
62124;BME280;48110;47.532;19.078;2023-12-20T06:27:36;100148.28;;;-1.61;100.00
62124;BME280;48110;47.532;19.078;2023-12-20T06:30:40;100138.59;;;-1.59;100.00
62124;BME280;48110;47.532;19.078;2023-12-20T06:33:43;100143.31;;;-1.52;100.00
62124;BME280;48110;47.532;19.078;2023-12-20T06:36:47;100150.09;;;-1.49;100.00
62124;BME280;48110;47.532;19.078;2023-12-20T06:39:49;100162.37;;;-1.51;100.00
62124;BME280;48110;47.532;19.078;2023-12-20T06:42:53;100171.56;;;-1.46;100.00
62124;BME280;48110;47.532;19.078;2023-12-20T06:46:07;100181.31;;;-1.49;100.00
62124;BME280;48110;47.532;19.078;2023-12-20T06:49:10;100189.28;;;-1.38;100.00
62124;BME280;48110;47.532;19.078;2023-12-20T06:52:13;100192.81;;;-1.39;100.00
62124;BME280;48110;47.532;19.078;2023-12-20T06:55:16;100203.34;;;-1.41;100.00
62124;BME280;48110;47.532;19.078;2023-12-20T06:58:20;100206.03;;;-1.42;100.00
62124;BME280;48110;47.532;19.078;2023-12-20T07:01:23;100205.81;;;-1.39;100.00
62124;BME280;48110;47.532;19.078;2023-12-20T07:04:26;100195.41;;;-1.39;100.00
62124;BME280;48110;47.532;19.078;2023-12-20T07:07:29;100210.59;;;-1.46;100.00
62124;BME280;48110;47.532;19.078;2023-12-20T07:10:32;100205.03;;;-1.68;100.00
62124;BME280;48110;47.532;19.078;2023-12-20T07:13:35;100207.06;;;-1.59;100.00
62124;BME280;48110;47.532;19.078;2023-12-20T07:16:38;100199.81;;;-1.54;100.00
62124;BME280;48110;47.532;19.078;2023-12-20T07:19:42;100188.78;;;-1.71;100.00
62124;BME280;48110;47.532;19.078;2023-12-20T07:22:45;100185.72;;;-1.78;100.00
62124;BME280;48110;47.532;19.078;2023-12-20T07:25:48;100185.72;;;-1.92;100.00
62124;BME280;48110;47.532;19.078;2023-12-20T07:28:51;100187.22;;;-2.02;100.00
62124;BME280;48110;47.532;19.078;2023-12-20T07:31:55;100196.41;;;-1.97;100.00
62124;BME280;48110;47.532;19.078;2023-12-20T07:34:57;100187.69;;;-1.82;100.00
62124;BME280;48110;47.532;19.078;2023-12-20T07:38:00;100193.25;;;-1.88;100.00
62124;BME280;48110;47.532;19.078;2023-12-20T07:41:04;100199.84;;;-1.82;100.00
62124;BME280;48110;47.532;19.078;2023-12-20T07:44:08;100207.44;;;-1.79;100.00
62124;BME280;48110;47.532;19.078;2023-12-20T07:47:10;100209.22;;;-1.65;100.00
62124;BME280;48110;47.532;19.078;2023-12-20T07:50:16;100197.22;;;-1.68;100.00
62124;BME280;48110;47.532;19.078;2023-12-20T07:53:19;100194.75;;;-1.69;100.00
62124;BME280;48110;47.532;19.078;2023-12-20T07:56:22;100188.41;;;-1.65;100.00
62124;BME280;48110;47.532;19.078;2023-12-20T07:59:25;100189.41;;;-1.54;100.00
62124;BME280;48110;47.532;19.078;2023-12-20T08:02:35;100181.75;;;-1.69;100.00
62124;BME280;48110;47.532;19.078;2023-12-20T08:05:38;100180.97;;;-1.57;100.00
62124;BME280;48110;47.532;19.078;2023-12-20T08:08:43;100177.47;;;-1.70;100.00
62124;BME280;48110;47.532;19.078;2023-12-20T08:11:48;100179.87;;;-1.67;100.00
62124;BME280;48110;47.532;19.078;2023-12-20T08:14:54;100167.06;;;-1.70;100.00
62124;BME280;48110;47.532;19.078;2023-12-20T08:17:57;100173.84;;;-1.82;100.00
62124;BME280;48110;47.532;19.078;2023-12-20T08:21:00;100168.06;;;-1.73;100.00
62124;BME280;48110;47.532;19.078;2023-12-20T08:24:04;100163.13;;;-1.63;100.00
62124;BME280;48110;47.532;19.078;2023-12-20T08:27:07;100172.63;;;-1.77;100.00
62124;BME280;48110;47.532;19.078;2023-12-20T08:30:12;100176.78;;;-1.74;100.00
62124;BME280;48110;47.532;19.078;2023-12-20T08:33:15;100173.28;;;-1.87;100.00
62124;BME280;48110;47.532;19.078;2023-12-20T08:36:19;100180.63;;;-1.65;100.00
62124;BME280;48110;47.532;19.078;2023-12-20T08:39:24;100187.75;;;-1.69;100.00
62124;BME280;48110;47.532;19.078;2023-12-20T08:42:27;100185.13;;;-1.55;100.00
62124;BME280;48110;47.532;19.078;2023-12-20T08:45:33;100178.00;;;-1.65;100.00
62124;BME280;48110;47.532;19.078;2023-12-20T08:48:36;100177.31;;;-1.55;100.00
62124;BME280;48110;47.532;19.078;2023-12-20T08:51:39;100180.47;;;-1.36;100.00
62124;BME280;48110;47.532;19.078;2023-12-20T08:54:44;100186.84;;;-1.27;100.00
62124;BME280;48110;47.532;19.078;2023-12-20T08:57:47;100176.19;;;-1.37;100.00
62124;BME280;48110;47.532;19.078;2023-12-20T09:00:51;100175.31;;;-1.23;100.00
62124;BME280;48110;47.532;19.078;2023-12-20T09:03:53;100181.09;;;-1.05;100.00
62124;BME280;48110;47.532;19.078;2023-12-20T09:06:59;100187.94;;;-1.58;100.00
62124;BME280;48110;47.532;19.078;2023-12-20T09:10:03;100191.84;;;-1.79;100.00
62124;BME280;48110;47.532;19.078;2023-12-20T09:13:06;100184.16;;;-1.40;100.00
62124;BME280;48110;47.532;19.078;2023-12-20T09:16:09;100179.63;;;-1.36;100.00
62124;BME280;48110;47.532;19.078;2023-12-20T09:19:13;100175.87;;;-1.32;100.00
62124;BME280;48110;47.532;19.078;2023-12-20T09:22:16;100177.69;;;-0.93;100.00
62124;BME280;48110;47.532;19.078;2023-12-20T09:25:19;100181.97;;;-0.92;100.00
62124;BME280;48110;47.532;19.078;2023-12-20T09:28:21;100182.00;;;-0.79;100.00
62124;BME280;48110;47.532;19.078;2023-12-20T09:31:24;100172.56;;;-0.95;100.00
62124;BME280;48110;47.532;19.078;2023-12-20T09:34:27;100165.63;;;-0.81;100.00
62124;BME280;48110;47.532;19.078;2023-12-20T09:37:30;100149.00;;;-1.06;100.00
62124;BME280;48110;47.532;19.078;2023-12-20T09:40:34;100152.22;;;-0.63;100.00
62124;BME280;48110;47.532;19.078;2023-12-20T09:43:39;100147.53;;;-0.32;100.00
62124;BME280;48110;47.532;19.078;2023-12-20T09:46:45;100138.69;;;-0.17;100.00
62124;BME280;48110;47.532;19.078;2023-12-20T09:49:51;100140.31;;;-0.04;100.00
62124;BME280;48110;47.532;19.078;2023-12-20T09:52:55;100141.66;;;0.15;100.00
62124;BME280;48110;47.532;19.078;2023-12-20T09:56:02;100133.72;;;0.29;100.00
62124;BME280;48110;47.532;19.078;2023-12-20T09:59:05;100117.19;;;0.05;100.00
62124;BME280;48110;47.532;19.078;2023-12-20T10:02:12;100122.59;;;0.02;100.00
62124;BME280;48110;47.532;19.078;2023-12-20T10:05:17;100120.44;;;0.32;100.00
62124;BME280;48110;47.532;19.078;2023-12-20T10:08:24;100115.72;;;-0.12;100.00
62124;BME280;48110;47.532;19.078;2023-12-20T10:11:27;100108.59;;;0.39;100.00
62124;BME280;48110;47.532;19.078;2023-12-20T10:14:32;100110.44;;;0.50;100.00
62124;BME280;48110;47.532;19.078;2023-12-20T10:17:35;100103.34;;;0.28;100.00
62124;BME280;48110;47.532;19.078;2023-12-20T10:20:40;100100.41;;;-0.17;100.00
62124;BME280;48110;47.532;19.078;2023-12-20T10:23:43;100106.88;;;-0.22;100.00
62124;BME280;48110;47.532;19.078;2023-12-20T10:26:46;100099.25;;;-0.13;100.00
62124;BME280;48110;47.532;19.078;2023-12-20T10:29:49;100075.63;;;-0.48;100.00
62124;BME280;48110;47.532;19.078;2023-12-20T10:32:52;100065.31;;;-0.36;100.00
62124;BME280;48110;47.532;19.078;2023-12-20T10:35:55;100052.22;;;-0.24;100.00
62124;BME280;48110;47.532;19.078;2023-12-20T10:38:59;100048.31;;;-0.29;100.00
62124;BME280;48110;47.532;19.078;2023-12-20T10:42:03;100045.34;;;-0.12;100.00
62124;BME280;48110;47.532;19.078;2023-12-20T10:45:08;100039.97;;;0.02;100.00
62124;BME280;48110;47.532;19.078;2023-12-20T10:48:11;100026.66;;;-0.06;100.00
62124;BME280;48110;47.532;19.078;2023-12-20T10:51:17;100032.38;;;-0.01;100.00
62124;BME280;48110;47.532;19.078;2023-12-20T10:54:21;100024.00;;;0.07;100.00
62124;BME280;48110;47.532;19.078;2023-12-20T10:57:26;100019.78;;;0.17;100.00
62124;BME280;48110;47.532;19.078;2023-12-20T11:00:31;100026.13;;;0.25;100.00
62124;BME280;48110;47.532;19.078;2023-12-20T11:03:35;100007.19;;;0.34;100.00
62124;BME280;48110;47.532;19.078;2023-12-20T11:06:47;100016.16;;;0.54;100.00
62124;BME280;48110;47.532;19.078;2023-12-20T11:09:59;100012.25;;;0.60;100.00
62124;BME280;48110;47.532;19.078;2023-12-20T11:13:09;100021.34;;;0.78;100.00
62124;BME280;48110;47.532;19.078;2023-12-20T11:16:15;100005.00;;;0.87;100.00
62124;BME280;48110;47.532;19.078;2023-12-20T11:19:23;100005.34;;;0.94;100.00
62124;BME280;48110;47.532;19.078;2023-12-20T11:22:27;99984.69;;;1.02;100.00
62124;BME280;48110;47.532;19.078;2023-12-20T11:25:51;99975.69;;;1.17;100.00
62124;BME280;48110;47.532;19.078;2023-12-20T11:29:33;99963.84;;;1.24;100.00
62124;BME280;48110;47.532;19.078;2023-12-20T11:32:37;99962.28;;;1.33;100.00
62124;BME280;48110;47.532;19.078;2023-12-20T11:35:40;99954.09;;;1.37;100.00
62124;BME280;48110;47.532;19.078;2023-12-20T11:38:58;99946.34;;;1.58;100.00
62124;BME280;48110;47.532;19.078;2023-12-20T11:42:05;99938.03;;;1.64;100.00
62124;BME280;48110;47.532;19.078;2023-12-20T11:45:10;99948.91;;;1.80;100.00
62124;BME280;48110;47.532;19.078;2023-12-20T11:48:13;99962.53;;;1.95;100.00
62124;BME280;48110;47.532;19.078;2023-12-20T11:51:17;99959.19;;;2.04;100.00
62124;BME280;48110;47.532;19.078;2023-12-20T11:54:20;99952.69;;;2.30;100.00
62124;BME280;48110;47.532;19.078;2023-12-20T11:57:23;99944.84;;;2.51;100.00
62124;BME280;48110;47.532;19.078;2023-12-20T12:00:30;99955.63;;;2.78;100.00
62124;BME280;48110;47.532;19.078;2023-12-20T12:03:33;99950.91;;;3.23;100.00
62124;BME280;48110;47.532;19.078;2023-12-20T12:06:35;99949.72;;;3.77;100.00
62124;BME280;48110;47.532;19.078;2023-12-20T12:09:38;99937.44;;;4.54;100.00
62124;BME280;48110;47.532;19.078;2023-12-20T12:12:41;99946.84;;;5.22;100.00
62124;BME280;48110;47.532;19.078;2023-12-20T12:15:45;99929.00;;;5.16;100.00
62124;BME280;48110;47.532;19.078;2023-12-20T12:18:56;99921.69;;;5.10;100.00
62124;BME280;48110;47.532;19.078;2023-12-20T12:22:10;99921.53;;;5.12;100.00
62124;BME280;48110;47.532;19.078;2023-12-20T12:25:17;99923.38;;;5.02;100.00
62124;BME280;48110;47.532;19.078;2023-12-20T12:28:21;99930.44;;;5.01;100.00
62124;BME280;48110;47.532;19.078;2023-12-20T12:31:24;99925.47;;;4.98;100.00
62124;BME280;48110;47.532;19.078;2023-12-20T12:34:31;99933.06;;;5.01;100.00
62124;BME280;48110;47.532;19.078;2023-12-20T12:37:38;99919.88;;;5.11;100.00
62124;BME280;48110;47.532;19.078;2023-12-20T12:40:43;99927.06;;;5.09;100.00
62124;BME280;48110;47.532;19.078;2023-12-20T12:43:47;99936.09;;;5.06;100.00
62124;BME280;48110;47.532;19.078;2023-12-20T12:46:52;99934.31;;;4.97;100.00
62124;BME280;48110;47.532;19.078;2023-12-20T12:49:56;99928.66;;;4.92;100.00
62124;BME280;48110;47.532;19.078;2023-12-20T12:53:00;99948.31;;;4.88;100.00
62124;BME280;48110;47.532;19.078;2023-12-20T12:56:06;99935.75;;;4.82;100.00
62124;BME280;48110;47.532;19.078;2023-12-20T12:59:09;99940.19;;;4.72;100.00
62124;BME280;48110;47.532;19.078;2023-12-20T13:02:13;99938.81;;;4.58;100.00
62124;BME280;48110;47.532;19.078;2023-12-20T13:05:16;99953.47;;;4.51;100.00
62124;BME280;48110;47.532;19.078;2023-12-20T13:08:24;99944.62;;;4.43;100.00
62124;BME280;48110;47.532;19.078;2023-12-20T13:11:29;99935.25;;;4.30;100.00
62124;BME280;48110;47.532;19.078;2023-12-20T13:14:34;99937.31;;;4.36;100.00
62124;BME280;48110;47.532;19.078;2023-12-20T13:17:39;99935.81;;;4.34;100.00
62124;BME280;48110;47.532;19.078;2023-12-20T13:20:43;99931.22;;;4.36;100.00
62124;BME280;48110;47.532;19.078;2023-12-20T13:23:55;99935.09;;;4.32;100.00
62124;BME280;48110;47.532;19.078;2023-12-20T13:27:00;99917.13;;;4.37;100.00
62124;BME280;48110;47.532;19.078;2023-12-20T13:30:05;99913.41;;;4.30;100.00
62124;BME280;48110;47.532;19.078;2023-12-20T13:33:11;99926.56;;;4.20;100.00
62124;BME280;48110;47.532;19.078;2023-12-20T13:36:14;99921.97;;;4.03;100.00
62124;BME280;48110;47.532;19.078;2023-12-20T13:39:20;99922.94;;;4.12;100.00
62124;BME280;48110;47.532;19.078;2023-12-20T13:42:25;99916.19;;;4.09;100.00
62124;BME280;48110;47.532;19.078;2023-12-20T13:45:30;99920.31;;;4.02;100.00
62124;BME280;48110;47.532;19.078;2023-12-20T13:48:33;99920.16;;;3.94;100.00
62124;BME280;48110;47.532;19.078;2023-12-20T13:51:36;99920.88;;;4.06;100.00
62124;BME280;48110;47.532;19.078;2023-12-20T13:54:39;99924.47;;;4.05;100.00
62124;BME280;48110;47.532;19.078;2023-12-20T13:57:41;99912.28;;;3.94;100.00
62124;BME280;48110;47.532;19.078;2023-12-20T14:00:57;99912.28;;;3.84;100.00
62124;BME280;48110;47.532;19.078;2023-12-20T14:04:01;99909.53;;;3.76;100.00
62124;BME280;48110;47.532;19.078;2023-12-20T14:07:06;99915.59;;;3.77;100.00
62124;BME280;48110;47.532;19.078;2023-12-20T14:10:11;99896.25;;;3.78;100.00
62124;BME280;48110;47.532;19.078;2023-12-20T14:13:15;99900.97;;;3.84;100.00
62124;BME280;48110;47.532;19.078;2023-12-20T14:16:24;99907.75;;;3.86;100.00
62124;BME280;48110;47.532;19.078;2023-12-20T14:19:27;99919.31;;;3.84;100.00
62124;BME280;48110;47.532;19.078;2023-12-20T14:22:31;99918.66;;;3.82;100.00
62124;BME280;48110;47.532;19.078;2023-12-20T14:25:34;99929.16;;;3.82;100.00
62124;BME280;48110;47.532;19.078;2023-12-20T14:28:53;99926.53;;;3.82;100.00
62124;BME280;48110;47.532;19.078;2023-12-20T14:31:56;99916.16;;;3.90;100.00
62124;BME280;48110;47.532;19.078;2023-12-20T14:35:02;99909.69;;;4.04;100.00
62124;BME280;48110;47.532;19.078;2023-12-20T14:38:05;99913.12;;;4.04;100.00
62124;BME280;48110;47.532;19.078;2023-12-20T14:41:12;99922.25;;;4.19;100.00
62124;BME280;48110;47.532;19.078;2023-12-20T14:44:15;99929.72;;;4.24;100.00
62124;BME280;48110;47.532;19.078;2023-12-20T14:47:21;99930.97;;;4.29;100.00
62124;BME280;48110;47.532;19.078;2023-12-20T14:50:24;99933.59;;;4.39;100.00
62124;BME280;48110;47.532;19.078;2023-12-20T14:53:32;99944.94;;;4.40;100.00
62124;BME280;48110;47.532;19.078;2023-12-20T14:56:36;99940.91;;;4.45;100.00
62124;BME280;48110;47.532;19.078;2023-12-20T14:59:40;99942.56;;;4.46;100.00
62124;BME280;48110;47.532;19.078;2023-12-20T15:02:49;99946.84;;;4.37;100.00
62124;BME280;48110;47.532;19.078;2023-12-20T15:06:03;99950.03;;;4.22;100.00
62124;BME280;48110;47.532;19.078;2023-12-20T15:09:09;99957.34;;;4.09;100.00
62124;BME280;48110;47.532;19.078;2023-12-20T15:12:13;99960.91;;;3.98;100.00
62124;BME280;48110;47.532;19.078;2023-12-20T15:15:15;99964.09;;;3.92;100.00
62124;BME280;48110;47.532;19.078;2023-12-20T15:18:18;99967.25;;;3.86;100.00
62124;BME280;48110;47.532;19.078;2023-12-20T15:21:22;99977.34;;;3.81;100.00
62124;BME280;48110;47.532;19.078;2023-12-20T15:24:36;99975.75;;;3.69;100.00
62124;BME280;48110;47.532;19.078;2023-12-20T15:27:43;99989.28;;;3.64;100.00
62124;BME280;48110;47.532;19.078;2023-12-20T15:30:47;99991.78;;;3.66;100.00
62124;BME280;48110;47.532;19.078;2023-12-20T15:33:50;99990.94;;;3.65;100.00
62124;BME280;48110;47.532;19.078;2023-12-20T15:36:53;99983.78;;;3.67;100.00
62124;BME280;48110;47.532;19.078;2023-12-20T15:39:56;99996.19;;;3.65;100.00
62124;BME280;48110;47.532;19.078;2023-12-20T15:43:00;100003.34;;;3.63;100.00
62124;BME280;48110;47.532;19.078;2023-12-20T15:46:05;99997.31;;;3.63;100.00